sensor_id;sensor_type;location;lat;lon;timestamp;P1;durP1;ratioP1;P2;durP2;ratioP2
69256;SDS011;56376;53.356;-1.748;2022-12-07T00:01:32;1.30;;;1.00;;
69256;SDS011;56376;53.356;-1.748;2022-12-07T00:04:00;2.90;;;1.53;;
69256;SDS011;56376;53.356;-1.748;2022-12-07T00:06:30;2.10;;;1.40;;
69256;SDS011;56376;53.356;-1.748;2022-12-07T00:09:00;1.70;;;1.00;;
69256;SDS011;56376;53.356;-1.748;2022-12-07T00:11:25;2.47;;;1.27;;
69256;SDS011;56376;53.356;-1.748;2022-12-07T00:13:52;2.43;;;1.50;;
69256;SDS011;56376;53.356;-1.748;2022-12-07T00:16:23;2.10;;;1.00;;
69256;SDS011;56376;53.356;-1.748;2022-12-07T00:18:50;2.67;;;1.20;;
69256;SDS011;56376;53.356;-1.748;2022-12-07T00:21:17;2.73;;;1.23;;
69256;SDS011;56376;53.356;-1.748;2022-12-07T00:23:45;3.30;;;1.83;;
69256;SDS011;56376;53.356;-1.748;2022-12-07T00:26:12;2.37;;;1.53;;
69256;SDS011;56376;53.356;-1.748;2022-12-07T00:28:39;1.83;;;1.17;;
69256;SDS011;56376;53.356;-1.748;2022-12-07T00:31:06;3.90;;;1.70;;
69256;SDS011;56376;53.356;-1.748;2022-12-07T00:33:33;2.63;;;1.50;;
69256;SDS011;56376;53.356;-1.748;2022-12-07T00:36:00;1.87;;;1.27;;
69256;SDS011;56376;53.356;-1.748;2022-12-07T00:38:30;3.03;;;1.50;;
69256;SDS011;56376;53.356;-1.748;2022-12-07T00:41:15;2.77;;;1.40;;
69256;SDS011;56376;53.356;-1.748;2022-12-07T00:43:43;3.10;;;1.23;;
69256;SDS011;56376;53.356;-1.748;2022-12-07T00:46:09;1.90;;;1.00;;
69256;SDS011;56376;53.356;-1.748;2022-12-07T00:48:35;2.50;;;1.10;;
69256;SDS011;56376;53.356;-1.748;2022-12-07T00:51:01;3.10;;;1.30;;
69256;SDS011;56376;53.356;-1.748;2022-12-07T00:53:27;1.40;;;1.17;;
69256;SDS011;56376;53.356;-1.748;2022-12-07T00:55:52;2.30;;;1.40;;
69256;SDS011;56376;53.356;-1.748;2022-12-07T00:58:18;2.80;;;1.20;;
69256;SDS011;56376;53.356;-1.748;2022-12-07T01:00:44;2.40;;;1.17;;
69256;SDS011;56376;53.356;-1.748;2022-12-07T01:03:10;1.93;;;1.13;;
69256;SDS011;56376;53.356;-1.748;2022-12-07T01:05:37;3.87;;;1.37;;
69256;SDS011;56376;53.356;-1.748;2022-12-07T01:08:03;3.80;;;1.40;;
69256;SDS011;56376;53.356;-1.748;2022-12-07T01:10:31;2.87;;;1.83;;
69256;SDS011;56376;53.356;-1.748;2022-12-07T01:12:57;3.90;;;1.20;;
69256;SDS011;56376;53.356;-1.748;2022-12-07T01:15:24;2.33;;;1.40;;
69256;SDS011;56376;53.356;-1.748;2022-12-07T01:17:50;2.03;;;1.20;;
69256;SDS011;56376;53.356;-1.748;2022-12-07T01:20:16;2.30;;;1.30;;
69256;SDS011;56376;53.356;-1.748;2022-12-07T01:22:42;4.53;;;1.40;;
69256;SDS011;56376;53.356;-1.748;2022-12-07T01:25:08;2.20;;;1.37;;
69256;SDS011;56376;53.356;-1.748;2022-12-07T01:27:36;2.37;;;1.30;;
69256;SDS011;56376;53.356;-1.748;2022-12-07T01:30:02;2.83;;;1.13;;
69256;SDS011;56376;53.356;-1.748;2022-12-07T01:32:29;3.47;;;1.40;;
69256;SDS011;56376;53.356;-1.748;2022-12-07T01:34:54;3.50;;;1.90;;
69256;SDS011;56376;53.356;-1.748;2022-12-07T01:37:20;1.80;;;1.00;;
69256;SDS011;56376;53.356;-1.748;2022-12-07T01:39:48;5.13;;;1.37;;
69256;SDS011;56376;53.356;-1.748;2022-12-07T01:42:14;2.57;;;1.27;;
69256;SDS011;56376;53.356;-1.748;2022-12-07T01:47:42;1.60;;;0.90;;
69256;SDS011;56376;53.356;-1.748;2022-12-07T01:50:11;4.50;;;1.33;;
69256;SDS011;56376;53.356;-1.748;2022-12-07T01:52:36;4.63;;;1.73;;
69256;SDS011;56376;53.356;-1.748;2022-12-07T01:55:05;2.53;;;1.10;;
69256;SDS011;56376;53.356;-1.748;2022-12-07T01:57:34;3.53;;;1.50;;
69256;SDS011;56376;53.356;-1.748;2022-12-07T02:00:04;4.37;;;1.10;;
69256;SDS011;56376;53.356;-1.748;2022-12-07T02:02:35;3.70;;;1.17;;
69256;SDS011;56376;53.356;-1.748;2022-12-07T02:05:04;1.30;;;0.90;;
69256;SDS011;56376;53.356;-1.748;2022-12-07T02:07:31;2.23;;;0.90;;
69256;SDS011;56376;53.356;-1.748;2022-12-07T02:12:41;3.10;;;1.10;;
69256;SDS011;56376;53.356;-1.748;2022-12-07T02:15:08;1.10;;;0.80;;
69256;SDS011;56376;53.356;-1.748;2022-12-07T02:23:40;1.47;;;0.80;;
69256;SDS011;56376;53.356;-1.748;2022-12-07T02:31:37;1.40;;;0.80;;
69256;SDS011;56376;53.356;-1.748;2022-12-07T02:34:17;3.90;;;1.47;;
69256;SDS011;56376;53.356;-1.748;2022-12-07T02:36:54;2.07;;;1.17;;
69256;SDS011;56376;53.356;-1.748;2022-12-07T02:42:26;1.83;;;1.10;;
69256;SDS011;56376;53.356;-1.748;2022-12-07T02:44:59;1.63;;;1.07;;
69256;SDS011;56376;53.356;-1.748;2022-12-07T02:47:26;3.07;;;1.50;;
69256;SDS011;56376;53.356;-1.748;2022-12-07T02:49:54;5.30;;;2.50;;
69256;SDS011;56376;53.356;-1.748;2022-12-07T02:52:20;4.27;;;1.27;;
69256;SDS011;56376;53.356;-1.748;2022-12-07T02:54:45;3.87;;;1.90;;
69256;SDS011;56376;53.356;-1.748;2022-12-07T02:57:17;1.53;;;1.43;;
69256;SDS011;56376;53.356;-1.748;2022-12-07T03:00:13;1.57;;;1.20;;
69256;SDS011;56376;53.356;-1.748;2022-12-07T03:13:41;2.00;;;0.80;;
69256;SDS011;56376;53.356;-1.748;2022-12-07T03:16:25;1.30;;;0.77;;
69256;SDS011;56376;53.356;-1.748;2022-12-07T03:18:58;2.37;;;0.90;;
69256;SDS011;56376;53.356;-1.748;2022-12-07T03:21:31;2.47;;;1.43;;
69256;SDS011;56376;53.356;-1.748;2022-12-07T03:24:00;1.60;;;1.30;;
69256;SDS011;56376;53.356;-1.748;2022-12-07T03:26:32;4.17;;;1.20;;
69256;SDS011;56376;53.356;-1.748;2022-12-07T03:29:02;1.87;;;0.90;;
69256;SDS011;56376;53.356;-1.748;2022-12-07T03:31:34;1.20;;;0.70;;
69256;SDS011;56376;53.356;-1.748;2022-12-07T03:34:14;1.83;;;0.90;;
69256;SDS011;56376;53.356;-1.748;2022-12-07T03:41:46;3.10;;;0.90;;
69256;SDS011;56376;53.356;-1.748;2022-12-07T03:44:12;1.80;;;0.93;;
69256;SDS011;56376;53.356;-1.748;2022-12-07T03:54:53;1.40;;;0.70;;
69256;SDS011;56376;53.356;-1.748;2022-12-07T03:57:20;0.60;;;0.60;;
69256;SDS011;56376;53.356;-1.748;2022-12-07T03:59:49;1.20;;;0.57;;
69256;SDS011;56376;53.356;-1.748;2022-12-07T04:02:16;2.37;;;0.70;;
69256;SDS011;56376;53.356;-1.748;2022-12-07T04:04:42;2.97;;;0.90;;
69256;SDS011;56376;53.356;-1.748;2022-12-07T04:07:08;3.10;;;1.00;;
69256;SDS011;56376;53.356;-1.748;2022-12-07T04:09:34;1.73;;;0.70;;
69256;SDS011;56376;53.356;-1.748;2022-12-07T04:11:59;2.07;;;0.83;;
69256;SDS011;56376;53.356;-1.748;2022-12-07T04:14:25;0.93;;;0.73;;
69256;SDS011;56376;53.356;-1.748;2022-12-07T04:16:51;0.87;;;0.60;;
69256;SDS011;56376;53.356;-1.748;2022-12-07T04:19:20;2.20;;;1.00;;
69256;SDS011;56376;53.356;-1.748;2022-12-07T04:21:47;2.20;;;1.30;;
69256;SDS011;56376;53.356;-1.748;2022-12-07T04:24:13;0.90;;;0.73;;
69256;SDS011;56376;53.356;-1.748;2022-12-07T04:26:40;4.67;;;0.90;;
69256;SDS011;56376;53.356;-1.748;2022-12-07T04:29:06;1.77;;;1.37;;
69256;SDS011;56376;53.356;-1.748;2022-12-07T04:31:32;2.10;;;1.00;;
69256;SDS011;56376;53.356;-1.748;2022-12-07T04:33:57;0.77;;;0.77;;
69256;SDS011;56376;53.356;-1.748;2022-12-07T04:36:22;2.10;;;0.80;;
69256;SDS011;56376;53.356;-1.748;2022-12-07T04:38:48;2.07;;;1.00;;
69256;SDS011;56376;53.356;-1.748;2022-12-07T04:41:13;1.90;;;0.80;;
69256;SDS011;56376;53.356;-1.748;2022-12-07T04:43:39;0.77;;;0.73;;
69256;SDS011;56376;53.356;-1.748;2022-12-07T04:46:04;1.83;;;0.80;;
69256;SDS011;56376;53.356;-1.748;2022-12-07T04:48:30;1.97;;;0.67;;
69256;SDS011;56376;53.356;-1.748;2022-12-07T04:50:55;2.10;;;0.93;;
69256;SDS011;56376;53.356;-1.748;2022-12-07T04:53:21;1.10;;;0.70;;
69256;SDS011;56376;53.356;-1.748;2022-12-07T04:55:46;1.33;;;1.07;;
69256;SDS011;56376;53.356;-1.748;2022-12-07T04:58:12;0.90;;;0.80;;
69256;SDS011;56376;53.356;-1.748;2022-12-07T05:00:38;1.93;;;1.03;;
69256;SDS011;56376;53.356;-1.748;2022-12-07T05:03:04;0.80;;;0.73;;
69256;SDS011;56376;53.356;-1.748;2022-12-07T05:05:29;1.40;;;0.70;;
69256;SDS011;56376;53.356;-1.748;2022-12-07T05:07:55;2.53;;;0.73;;
69256;SDS011;56376;53.356;-1.748;2022-12-07T05:10:20;1.03;;;0.70;;
69256;SDS011;56376;53.356;-1.748;2022-12-07T05:12:46;2.07;;;0.97;;
69256;SDS011;56376;53.356;-1.748;2022-12-07T05:15:12;3.00;;;0.83;;
69256;SDS011;56376;53.356;-1.748;2022-12-07T05:17:39;1.50;;;0.70;;
69256;SDS011;56376;53.356;-1.748;2022-12-07T05:20:04;2.63;;;0.60;;
69256;SDS011;56376;53.356;-1.748;2022-12-07T05:22:30;1.73;;;1.30;;
69256;SDS011;56376;53.356;-1.748;2022-12-07T05:24:55;1.40;;;0.63;;
69256;SDS011;56376;53.356;-1.748;2022-12-07T05:27:21;2.70;;;1.13;;
69256;SDS011;56376;53.356;-1.748;2022-12-07T05:29:46;0.90;;;0.77;;
69256;SDS011;56376;53.356;-1.748;2022-12-07T05:32:12;1.70;;;0.80;;
69256;SDS011;56376;53.356;-1.748;2022-12-07T05:34:37;1.47;;;0.80;;
69256;SDS011;56376;53.356;-1.748;2022-12-07T05:37:03;0.93;;;0.63;;
69256;SDS011;56376;53.356;-1.748;2022-12-07T05:39:28;2.93;;;0.90;;
69256;SDS011;56376;53.356;-1.748;2022-12-07T05:41:54;0.93;;;0.80;;
69256;SDS011;56376;53.356;-1.748;2022-12-07T05:44:38;3.50;;;1.27;;
69256;SDS011;56376;53.356;-1.748;2022-12-07T05:47:04;2.30;;;0.80;;
69256;SDS011;56376;53.356;-1.748;2022-12-07T05:49:29;0.80;;;0.70;;
69256;SDS011;56376;53.356;-1.748;2022-12-07T05:51:55;1.97;;;0.60;;
69256;SDS011;56376;53.356;-1.748;2022-12-07T05:54:20;1.70;;;0.80;;
69256;SDS011;56376;53.356;-1.748;2022-12-07T05:56:46;0.67;;;0.67;;
69256;SDS011;56376;53.356;-1.748;2022-12-07T05:59:11;2.20;;;0.70;;
69256;SDS011;56376;53.356;-1.748;2022-12-07T06:01:52;1.80;;;0.60;;
69256;SDS011;56376;53.356;-1.748;2022-12-07T06:04:23;3.10;;;0.80;;
69256;SDS011;56376;53.356;-1.748;2022-12-07T06:06:50;1.90;;;0.80;;
69256;SDS011;56376;53.356;-1.748;2022-12-07T06:09:16;0.60;;;0.43;;
69256;SDS011;56376;53.356;-1.748;2022-12-07T06:11:43;1.10;;;0.50;;
69256;SDS011;56376;53.356;-1.748;2022-12-07T06:14:27;1.85;;;0.88;;
69256;SDS011;56376;53.356;-1.748;2022-12-07T06:16:52;1.73;;;0.70;;
69256;SDS011;56376;53.356;-1.748;2022-12-07T06:19:18;0.63;;;0.60;;
69256;SDS011;56376;53.356;-1.748;2022-12-07T06:21:43;2.43;;;1.10;;
69256;SDS011;56376;53.356;-1.748;2022-12-07T06:24:10;1.57;;;0.70;;
69256;SDS011;56376;53.356;-1.748;2022-12-07T06:26:38;1.30;;;0.80;;
69256;SDS011;56376;53.356;-1.748;2022-12-07T06:29:04;1.10;;;0.93;;
69256;SDS011;56376;53.356;-1.748;2022-12-07T06:31:30;1.33;;;0.80;;
69256;SDS011;56376;53.356;-1.748;2022-12-07T06:33:59;1.83;;;0.67;;
69256;SDS011;56376;53.356;-1.748;2022-12-07T06:36:26;1.83;;;0.67;;
69256;SDS011;56376;53.356;-1.748;2022-12-07T06:38:51;1.47;;;0.80;;
69256;SDS011;56376;53.356;-1.748;2022-12-07T06:41:17;2.10;;;0.70;;
69256;SDS011;56376;53.356;-1.748;2022-12-07T06:43:42;1.90;;;0.80;;
69256;SDS011;56376;53.356;-1.748;2022-12-07T06:46:08;1.03;;;0.70;;
69256;SDS011;56376;53.356;-1.748;2022-12-07T06:48:33;0.70;;;0.70;;
69256;SDS011;56376;53.356;-1.748;2022-12-07T06:50:58;2.40;;;1.40;;
69256;SDS011;56376;53.356;-1.748;2022-12-07T06:53:24;0.67;;;0.63;;
69256;SDS011;56376;53.356;-1.748;2022-12-07T06:55:50;2.40;;;0.90;;
69256;SDS011;56376;53.356;-1.748;2022-12-07T06:58:16;1.60;;;0.57;;
69256;SDS011;56376;53.356;-1.748;2022-12-07T07:00:42;1.63;;;0.80;;
69256;SDS011;56376;53.356;-1.748;2022-12-07T07:03:07;3.10;;;0.80;;
69256;SDS011;56376;53.356;-1.748;2022-12-07T07:05:33;1.60;;;1.30;;
69256;SDS011;56376;53.356;-1.748;2022-12-07T07:07:58;3.67;;;0.87;;
69256;SDS011;56376;53.356;-1.748;2022-12-07T07:10:24;1.90;;;0.93;;
69256;SDS011;56376;53.356;-1.748;2022-12-07T07:12:49;2.60;;;0.80;;
69256;SDS011;56376;53.356;-1.748;2022-12-07T07:15:15;1.87;;;0.70;;
69256;SDS011;56376;53.356;-1.748;2022-12-07T07:17:40;2.20;;;0.83;;
69256;SDS011;56376;53.356;-1.748;2022-12-07T07:20:06;1.70;;;1.30;;
69256;SDS011;56376;53.356;-1.748;2022-12-07T07:22:31;1.33;;;0.50;;
69256;SDS011;56376;53.356;-1.748;2022-12-07T07:24:57;0.70;;;0.60;;
69256;SDS011;56376;53.356;-1.748;2022-12-07T07:27:22;1.07;;;0.60;;
69256;SDS011;56376;53.356;-1.748;2022-12-07T07:29:47;2.03;;;0.60;;
69256;SDS011;56376;53.356;-1.748;2022-12-07T07:32:13;1.67;;;0.50;;
69256;SDS011;56376;53.356;-1.748;2022-12-07T07:34:39;1.30;;;0.67;;
69256;SDS011;56376;53.356;-1.748;2022-12-07T07:37:04;2.00;;;1.20;;
69256;SDS011;56376;53.356;-1.748;2022-12-07T07:39:30;1.20;;;0.70;;
69256;SDS011;56376;53.356;-1.748;2022-12-07T07:41:55;1.77;;;0.70;;
69256;SDS011;56376;53.356;-1.748;2022-12-07T07:44:21;1.93;;;0.87;;
69256;SDS011;56376;53.356;-1.748;2022-12-07T07:46:46;1.17;;;0.60;;
69256;SDS011;56376;53.356;-1.748;2022-12-07T07:49:12;1.53;;;0.73;;
69256;SDS011;56376;53.356;-1.748;2022-12-07T07:51:37;0.60;;;0.53;;
69256;SDS011;56376;53.356;-1.748;2022-12-07T07:54:03;1.30;;;0.77;;
69256;SDS011;56376;53.356;-1.748;2022-12-07T07:56:28;2.57;;;0.90;;
69256;SDS011;56376;53.356;-1.748;2022-12-07T07:58:54;0.97;;;0.70;;
69256;SDS011;56376;53.356;-1.748;2022-12-07T08:01:19;2.30;;;0.70;;
69256;SDS011;56376;53.356;-1.748;2022-12-07T08:03:48;0.77;;;0.60;;
69256;SDS011;56376;53.356;-1.748;2022-12-07T08:06:14;0.90;;;0.80;;
69256;SDS011;56376;53.356;-1.748;2022-12-07T08:08:39;2.70;;;1.20;;
69256;SDS011;56376;53.356;-1.748;2022-12-07T08:11:05;2.10;;;0.70;;
69256;SDS011;56376;53.356;-1.748;2022-12-07T08:13:31;0.93;;;0.80;;
69256;SDS011;56376;53.356;-1.748;2022-12-07T08:15:56;1.63;;;0.70;;
69256;SDS011;56376;53.356;-1.748;2022-12-07T08:18:22;2.53;;;1.00;;
69256;SDS011;56376;53.356;-1.748;2022-12-07T08:20:47;2.73;;;0.73;;
69256;SDS011;56376;53.356;-1.748;2022-12-07T08:23:13;1.90;;;0.90;;
69256;SDS011;56376;53.356;-1.748;2022-12-07T08:25:38;0.83;;;0.73;;
69256;SDS011;56376;53.356;-1.748;2022-12-07T08:28:04;0.90;;;0.77;;
69256;SDS011;56376;53.356;-1.748;2022-12-07T08:30:30;1.20;;;0.80;;
69256;SDS011;56376;53.356;-1.748;2022-12-07T08:32:56;1.70;;;1.00;;
69256;SDS011;56376;53.356;-1.748;2022-12-07T08:35:21;0.90;;;0.70;;
69256;SDS011;56376;53.356;-1.748;2022-12-07T08:37:47;2.07;;;0.70;;
69256;SDS011;56376;53.356;-1.748;2022-12-07T08:40:13;1.60;;;0.80;;
69256;SDS011;56376;53.356;-1.748;2022-12-07T08:42:43;1.50;;;0.70;;
69256;SDS011;56376;53.356;-1.748;2022-12-07T08:45:13;2.23;;;0.90;;
69256;SDS011;56376;53.356;-1.748;2022-12-07T08:47:50;3.20;;;1.00;;
69256;SDS011;56376;53.356;-1.748;2022-12-07T08:50:20;2.33;;;1.07;;
69256;SDS011;56376;53.356;-1.748;2022-12-07T08:52:54;1.67;;;1.00;;
69256;SDS011;56376;53.356;-1.748;2022-12-07T08:55:21;3.33;;;1.80;;
69256;SDS011;56376;53.356;-1.748;2022-12-07T08:57:48;3.07;;;2.10;;
69256;SDS011;56376;53.356;-1.748;2022-12-07T09:00:13;3.13;;;2.00;;
69256;SDS011;56376;53.356;-1.748;2022-12-07T09:02:39;5.20;;;2.40;;
69256;SDS011;56376;53.356;-1.748;2022-12-07T09:05:05;5.67;;;2.77;;
69256;SDS011;56376;53.356;-1.748;2022-12-07T09:07:31;2.60;;;2.33;;
69256;SDS011;56376;53.356;-1.748;2022-12-07T09:09:58;3.00;;;2.60;;
69256;SDS011;56376;53.356;-1.748;2022-12-07T09:12:24;3.40;;;2.50;;
69256;SDS011;56376;53.356;-1.748;2022-12-07T09:14:50;6.60;;;3.80;;
69256;SDS011;56376;53.356;-1.748;2022-12-07T09:17:15;6.00;;;4.03;;
69256;SDS011;56376;53.356;-1.748;2022-12-07T09:19:41;6.17;;;3.90;;
69256;SDS011;56376;53.356;-1.748;2022-12-07T09:22:07;5.33;;;3.90;;
69256;SDS011;56376;53.356;-1.748;2022-12-07T09:24:33;5.93;;;4.33;;
69256;SDS011;56376;53.356;-1.748;2022-12-07T09:26:58;8.97;;;5.07;;
69256;SDS011;56376;53.356;-1.748;2022-12-07T09:29:24;6.03;;;4.13;;
69256;SDS011;56376;53.356;-1.748;2022-12-07T09:31:50;7.30;;;4.43;;
69256;SDS011;56376;53.356;-1.748;2022-12-07T09:34:16;6.13;;;3.60;;
69256;SDS011;56376;53.356;-1.748;2022-12-07T09:36:42;5.90;;;4.10;;
69256;SDS011;56376;53.356;-1.748;2022-12-07T09:39:08;6.80;;;4.43;;
69256;SDS011;56376;53.356;-1.748;2022-12-07T09:41:33;5.00;;;3.80;;
69256;SDS011;56376;53.356;-1.748;2022-12-07T09:44:11;7.07;;;4.90;;
69256;SDS011;56376;53.356;-1.748;2022-12-07T09:46:45;5.87;;;5.07;;
69256;SDS011;56376;53.356;-1.748;2022-12-07T09:49:20;8.90;;;5.30;;
69256;SDS011;56376;53.356;-1.748;2022-12-07T09:51:47;7.00;;;5.03;;
69256;SDS011;56376;53.356;-1.748;2022-12-07T09:54:26;6.73;;;4.83;;
69256;SDS011;56376;53.356;-1.748;2022-12-07T09:56:53;7.97;;;5.43;;
69256;SDS011;56376;53.356;-1.748;2022-12-07T09:59:18;8.30;;;4.40;;
69256;SDS011;56376;53.356;-1.748;2022-12-07T10:01:45;7.30;;;4.20;;
69256;SDS011;56376;53.356;-1.748;2022-12-07T10:06:49;8.67;;;4.53;;
69256;SDS011;56376;53.356;-1.748;2022-12-07T10:09:16;7.00;;;4.27;;
69256;SDS011;56376;53.356;-1.748;2022-12-07T10:12:04;8.63;;;4.80;;
69256;SDS011;56376;53.356;-1.748;2022-12-07T10:14:35;8.80;;;5.23;;
69256;SDS011;56376;53.356;-1.748;2022-12-07T10:17:11;8.77;;;5.07;;
69256;SDS011;56376;53.356;-1.748;2022-12-07T10:20:08;10.10;;;4.97;;
69256;SDS011;56376;53.356;-1.748;2022-12-07T10:22:36;8.63;;;5.17;;
69256;SDS011;56376;53.356;-1.748;2022-12-07T10:25:07;8.33;;;5.10;;
69256;SDS011;56376;53.356;-1.748;2022-12-07T10:27:42;7.50;;;4.43;;
69256;SDS011;56376;53.356;-1.748;2022-12-07T10:30:07;6.57;;;4.73;;
69256;SDS011;56376;53.356;-1.748;2022-12-07T10:32:39;8.00;;;4.93;;
69256;SDS011;56376;53.356;-1.748;2022-12-07T10:35:17;6.97;;;4.90;;
69256;SDS011;56376;53.356;-1.748;2022-12-07T10:37:46;8.00;;;4.93;;
69256;SDS011;56376;53.356;-1.748;2022-12-07T10:40:24;7.90;;;4.80;;
69256;SDS011;56376;53.356;-1.748;2022-12-07T10:43:01;13.10;;;5.10;;
69256;SDS011;56376;53.356;-1.748;2022-12-07T10:45:27;9.30;;;4.37;;
69256;SDS011;56376;53.356;-1.748;2022-12-07T10:53:28;6.53;;;3.67;;
69256;SDS011;56376;53.356;-1.748;2022-12-07T10:56:11;5.35;;;3.80;;
69256;SDS011;56376;53.356;-1.748;2022-12-07T11:04:10;5.43;;;3.30;;
69256;SDS011;56376;53.356;-1.748;2022-12-07T11:07:01;3.88;;;3.15;;
69256;SDS011;56376;53.356;-1.748;2022-12-07T11:09:46;4.13;;;3.38;;
69256;SDS011;56376;53.356;-1.748;2022-12-07T11:26:34;6.23;;;2.77;;
69256;SDS011;56376;53.356;-1.748;2022-12-07T11:37:19;5.53;;;3.20;;
69256;SDS011;56376;53.356;-1.748;2022-12-07T11:39:51;4.30;;;3.00;;
69256;SDS011;56376;53.356;-1.748;2022-12-07T11:42:29;4.40;;;2.70;;
69256;SDS011;56376;53.356;-1.748;2022-12-07T11:45:00;4.47;;;2.87;;
69256;SDS011;56376;53.356;-1.748;2022-12-07T11:47:38;2.97;;;2.23;;
69256;SDS011;56376;53.356;-1.748;2022-12-07T11:53:01;4.63;;;2.33;;
69256;SDS011;56376;53.356;-1.748;2022-12-07T11:57:58;4.10;;;2.83;;
69256;SDS011;56376;53.356;-1.748;2022-12-07T12:00:30;4.17;;;2.87;;
69256;SDS011;56376;53.356;-1.748;2022-12-07T12:02:58;3.87;;;2.30;;
69256;SDS011;56376;53.356;-1.748;2022-12-07T12:05:29;3.17;;;2.85;;
69256;SDS011;56376;53.356;-1.748;2022-12-07T12:08:03;3.10;;;2.57;;
69256;SDS011;56376;53.356;-1.748;2022-12-07T12:16:09;5.90;;;3.90;;
69256;SDS011;56376;53.356;-1.748;2022-12-07T12:18:58;3.73;;;3.10;;
69256;SDS011;56376;53.356;-1.748;2022-12-07T12:24:14;3.47;;;2.80;;
69256;SDS011;56376;53.356;-1.748;2022-12-07T12:26:52;4.40;;;3.60;;
69256;SDS011;56376;53.356;-1.748;2022-12-07T12:29:33;5.83;;;3.30;;
69256;SDS011;56376;53.356;-1.748;2022-12-07T12:32:15;4.47;;;2.90;;
69256;SDS011;56376;53.356;-1.748;2022-12-07T12:42:46;4.20;;;2.83;;
69256;SDS011;56376;53.356;-1.748;2022-12-07T12:45:21;4.20;;;3.10;;
69256;SDS011;56376;53.356;-1.748;2022-12-07T12:50:27;4.83;;;3.00;;
69256;SDS011;56376;53.356;-1.748;2022-12-07T12:52:55;4.83;;;3.00;;
69256;SDS011;56376;53.356;-1.748;2022-12-07T12:58:37;6.73;;;3.40;;
69256;SDS011;56376;53.356;-1.748;2022-12-07T13:04:03;3.70;;;2.70;;
69256;SDS011;56376;53.356;-1.748;2022-12-07T13:06:42;6.00;;;2.93;;
69256;SDS011;56376;53.356;-1.748;2022-12-07T13:09:17;5.43;;;2.43;;
69256;SDS011;56376;53.356;-1.748;2022-12-07T13:11:47;5.57;;;3.10;;
69256;SDS011;56376;53.356;-1.748;2022-12-07T13:17:00;7.47;;;3.03;;
69256;SDS011;56376;53.356;-1.748;2022-12-07T13:19:33;3.70;;;2.57;;
69256;SDS011;56376;53.356;-1.748;2022-12-07T13:25:37;5.10;;;3.17;;
69256;SDS011;56376;53.356;-1.748;2022-12-07T13:27:52;2.77;;;2.20;;
69256;SDS011;56376;53.356;-1.748;2022-12-07T13:30:23;3.53;;;2.87;;
69256;SDS011;56376;53.356;-1.748;2022-12-07T13:32:56;4.13;;;2.60;;
69256;SDS011;56376;53.356;-1.748;2022-12-07T13:35:34;4.80;;;2.70;;
69256;SDS011;56376;53.356;-1.748;2022-12-07T13:38:02;4.47;;;2.77;;
69256;SDS011;56376;53.356;-1.748;2022-12-07T13:40:31;3.00;;;2.27;;
69256;SDS011;56376;53.356;-1.748;2022-12-07T13:42:57;3.40;;;3.00;;
69256;SDS011;56376;53.356;-1.748;2022-12-07T13:45:31;5.10;;;3.20;;
69256;SDS011;56376;53.356;-1.748;2022-12-07T13:53:46;9.33;;;5.30;;
69256;SDS011;56376;53.356;-1.748;2022-12-07T13:56:12;8.27;;;4.93;;
69256;SDS011;56376;53.356;-1.748;2022-12-07T13:58:39;8.70;;;5.80;;
69256;SDS011;56376;53.356;-1.748;2022-12-07T14:01:05;9.27;;;5.60;;
69256;SDS011;56376;53.356;-1.748;2022-12-07T14:03:32;10.20;;;6.83;;
69256;SDS011;56376;53.356;-1.748;2022-12-07T14:06:04;10.10;;;6.37;;
69256;SDS011;56376;53.356;-1.748;2022-12-07T14:08:32;9.13;;;5.83;;
69256;SDS011;56376;53.356;-1.748;2022-12-07T14:10:57;8.83;;;5.97;;
69256;SDS011;56376;53.356;-1.748;2022-12-07T14:15:55;7.47;;;5.77;;
69256;SDS011;56376;53.356;-1.748;2022-12-07T14:18:27;7.60;;;5.50;;
69256;SDS011;56376;53.356;-1.748;2022-12-07T14:21:05;7.40;;;5.23;;
69256;SDS011;56376;53.356;-1.748;2022-12-07T14:23:44;5.27;;;4.07;;
69256;SDS011;56376;53.356;-1.748;2022-12-07T14:28:39;7.57;;;4.40;;
69256;SDS011;56376;53.356;-1.748;2022-12-07T14:31:11;5.70;;;4.33;;
69256;SDS011;56376;53.356;-1.748;2022-12-07T14:33:38;5.23;;;4.03;;
69256;SDS011;56376;53.356;-1.748;2022-12-07T14:36:04;5.87;;;4.30;;
69256;SDS011;56376;53.356;-1.748;2022-12-07T14:38:30;5.00;;;4.10;;
69256;SDS011;56376;53.356;-1.748;2022-12-07T14:40:55;6.20;;;4.37;;
69256;SDS011;56376;53.356;-1.748;2022-12-07T14:43:44;6.97;;;4.50;;
69256;SDS011;56376;53.356;-1.748;2022-12-07T14:46:10;5.37;;;3.90;;
69256;SDS011;56376;53.356;-1.748;2022-12-07T14:48:35;6.73;;;4.23;;
69256;SDS011;56376;53.356;-1.748;2022-12-07T14:51:01;8.60;;;5.77;;
69256;SDS011;56376;53.356;-1.748;2022-12-07T14:53:31;6.97;;;4.73;;
69256;SDS011;56376;53.356;-1.748;2022-12-07T16:26:39;9.30;;;8.20;;
69256;SDS011;56376;53.356;-1.748;2022-12-07T16:29:05;11.73;;;7.90;;
69256;SDS011;56376;53.356;-1.748;2022-12-07T16:31:31;12.87;;;9.67;;
69256;SDS011;56376;53.356;-1.748;2022-12-07T16:33:57;10.80;;;8.13;;
69256;SDS011;56376;53.356;-1.748;2022-12-07T16:36:23;11.13;;;7.97;;
69256;SDS011;56376;53.356;-1.748;2022-12-07T16:38:50;10.63;;;6.93;;
69256;SDS011;56376;53.356;-1.748;2022-12-07T16:41:16;9.40;;;7.20;;
69256;SDS011;56376;53.356;-1.748;2022-12-07T16:43:45;11.23;;;7.20;;
69256;SDS011;56376;53.356;-1.748;2022-12-07T16:46:18;9.67;;;7.30;;
69256;SDS011;56376;53.356;-1.748;2022-12-07T16:48:53;9.73;;;6.97;;
69256;SDS011;56376;53.356;-1.748;2022-12-07T16:51:26;8.37;;;7.07;;
69256;SDS011;56376;53.356;-1.748;2022-12-07T16:53:55;9.97;;;6.67;;
69256;SDS011;56376;53.356;-1.748;2022-12-07T16:56:27;7.37;;;5.77;;
69256;SDS011;56376;53.356;-1.748;2022-12-07T16:58:54;9.43;;;7.23;;
69256;SDS011;56376;53.356;-1.748;2022-12-07T17:01:22;12.07;;;9.10;;
69256;SDS011;56376;53.356;-1.748;2022-12-07T17:03:58;12.10;;;8.13;;
69256;SDS011;56376;53.356;-1.748;2022-12-07T17:06:30;12.67;;;9.33;;
69256;SDS011;56376;53.356;-1.748;2022-12-07T17:08:56;12.17;;;8.57;;
69256;SDS011;56376;53.356;-1.748;2022-12-07T17:11:23;11.67;;;8.03;;
69256;SDS011;56376;53.356;-1.748;2022-12-07T17:13:51;11.30;;;7.37;;
69256;SDS011;56376;53.356;-1.748;2022-12-07T17:16:35;10.60;;;7.50;;
69256;SDS011;56376;53.356;-1.748;2022-12-07T17:19:05;7.97;;;5.73;;
69256;SDS011;56376;53.356;-1.748;2022-12-07T17:21:31;8.13;;;6.30;;
69256;SDS011;56376;53.356;-1.748;2022-12-07T17:23:58;6.57;;;5.23;;
69256;SDS011;56376;53.356;-1.748;2022-12-07T17:26:24;5.97;;;4.83;;
69256;SDS011;56376;53.356;-1.748;2022-12-07T17:28:51;6.97;;;5.10;;
69256;SDS011;56376;53.356;-1.748;2022-12-07T17:31:18;8.43;;;6.30;;
69256;SDS011;56376;53.356;-1.748;2022-12-07T17:33:44;7.50;;;6.70;;
69256;SDS011;56376;53.356;-1.748;2022-12-07T17:36:11;6.57;;;5.33;;
69256;SDS011;56376;53.356;-1.748;2022-12-07T17:38:48;7.13;;;5.63;;
69256;SDS011;56376;53.356;-1.748;2022-12-07T17:41:19;5.97;;;5.00;;
69256;SDS011;56376;53.356;-1.748;2022-12-07T17:44:09;6.53;;;5.33;;
69256;SDS011;56376;53.356;-1.748;2022-12-07T17:46:36;7.60;;;5.40;;
69256;SDS011;56376;53.356;-1.748;2022-12-07T17:49:02;6.37;;;5.20;;
69256;SDS011;56376;53.356;-1.748;2022-12-07T17:51:28;8.17;;;5.97;;
69256;SDS011;56376;53.356;-1.748;2022-12-07T17:54:12;6.10;;;5.45;;
69256;SDS011;56376;53.356;-1.748;2022-12-07T17:56:40;6.70;;;5.47;;
69256;SDS011;56376;53.356;-1.748;2022-12-07T17:59:05;7.17;;;5.27;;
69256;SDS011;56376;53.356;-1.748;2022-12-07T18:01:31;7.33;;;5.67;;
69256;SDS011;56376;53.356;-1.748;2022-12-07T18:03:57;8.83;;;6.10;;
69256;SDS011;56376;53.356;-1.748;2022-12-07T18:06:22;7.77;;;5.57;;
69256;SDS011;56376;53.356;-1.748;2022-12-07T18:08:48;7.40;;;5.77;;
69256;SDS011;56376;53.356;-1.748;2022-12-07T18:11:13;8.33;;;6.63;;
69256;SDS011;56376;53.356;-1.748;2022-12-07T18:13:39;8.93;;;6.50;;
69256;SDS011;56376;53.356;-1.748;2022-12-07T18:16:05;9.30;;;6.37;;
69256;SDS011;56376;53.356;-1.748;2022-12-07T18:18:33;7.90;;;5.90;;
69256;SDS011;56376;53.356;-1.748;2022-12-07T18:21:03;9.43;;;6.10;;